sensor_id;sensor_type;location;lat;lon;timestamp;temperature;humidity
27368;DHT22;14839;48.106;11.618;2022-12-07T05:01:22;2.60;94.60
27368;DHT22;14839;48.106;11.618;2022-12-07T05:03:48;2.60;94.60
27368;DHT22;14839;48.106;11.618;2022-12-07T05:06:14;2.60;94.60
27368;DHT22;14839;48.106;11.618;2022-12-07T05:08:41;2.60;94.60
27368;DHT22;14839;48.106;11.618;2022-12-07T05:11:07;2.50;94.60
27368;DHT22;14839;48.106;11.618;2022-12-07T05:13:34;2.50;94.60
27368;DHT22;14839;48.106;11.618;2022-12-07T05:16:00;2.50;94.60
27368;DHT22;14839;48.106;11.618;2022-12-07T05:18:26;2.50;94.60
27368;DHT22;14839;48.106;11.618;2022-12-07T05:20:52;2.50;94.60
27368;DHT22;14839;48.106;11.618;2022-12-07T05:23:18;2.50;94.60
27368;DHT22;14839;48.106;11.618;2022-12-07T05:25:44;2.50;94.60
27368;DHT22;14839;48.106;11.618;2022-12-07T05:28:10;2.40;94.60
27368;DHT22;14839;48.106;11.618;2022-12-07T05:30:36;2.40;94.60
27368;DHT22;14839;48.106;11.618;2022-12-07T05:33:02;2.40;94.60
27368;DHT22;14839;48.106;11.618;2022-12-07T05:35:28;2.40;94.60
27368;DHT22;14839;48.106;11.618;2022-12-07T05:37:55;2.40;94.60
27368;DHT22;14839;48.106;11.618;2022-12-07T05:40:22;2.30;94.60
27368;DHT22;14839;48.106;11.618;2022-12-07T05:42:48;2.40;94.60
27368;DHT22;14839;48.106;11.618;2022-12-07T05:45:14;2.30;94.60
27368;DHT22;14839;48.106;11.618;2022-12-07T05:47:39;2.30;94.60
27368;DHT22;14839;48.106;11.618;2022-12-07T05:50:05;2.30;94.60
27368;DHT22;14839;48.106;11.618;2022-12-07T05:52:32;2.30;94.60
27368;DHT22;14839;48.106;11.618;2022-12-07T05:54:58;2.30;94.60
27368;DHT22;14839;48.106;11.618;2022-12-07T05:57:23;2.30;94.60
27368;DHT22;14839;48.106;11.618;2022-12-07T05:59:49;2.30;94.60
27368;DHT22;14839;48.106;11.618;2022-12-07T06:02:16;2.30;94.60
27368;DHT22;14839;48.106;11.618;2022-12-07T06:04:45;2.30;94.60
27368;DHT22;14839;48.106;11.618;2022-12-07T06:07:12;2.40;94.60
27368;DHT22;14839;48.106;11.618;2022-12-07T06:09:38;2.30;94.60
27368;DHT22;14839;48.106;11.618;2022-12-07T06:12:04;2.30;94.60
27368;DHT22;14839;48.106;11.618;2022-12-07T06:14:48;2.30;94.60
27368;DHT22;14839;48.106;11.618;2022-12-07T06:17:15;2.30;94.60
27368;DHT22;14839;48.106;11.618;2022-12-07T06:19:41;2.30;94.60
27368;DHT22;14839;48.106;11.618;2022-12-07T06:22:07;2.30;94.60
27368;DHT22;14839;48.106;11.618;2022-12-07T06:24:34;2.20;94.60
27368;DHT22;14839;48.106;11.618;2022-12-07T06:27:00;2.20;94.60
27368;DHT22;14839;48.106;11.618;2022-12-07T06:29:26;2.20;94.60
27368;DHT22;14839;48.106;11.618;2022-12-07T06:31:51;2.20;94.60
27368;DHT22;14839;48.106;11.618;2022-12-07T06:34:19;2.20;94.60
27368;DHT22;14839;48.106;11.618;2022-12-07T06:36:45;2.20;94.60
27368;DHT22;14839;48.106;11.618;2022-12-07T06:39:12;2.20;94.60
27368;DHT22;14839;48.106;11.618;2022-12-07T06:41:38;2.20;94.60
27368;DHT22;14839;48.106;11.618;2022-12-07T06:44:05;2.20;94.60
27368;DHT22;14839;48.106;11.618;2022-12-07T06:46:31;2.20;94.60
27368;DHT22;14839;48.106;11.618;2022-12-07T06:48:57;2.20;94.60
27368;DHT22;14839;48.106;11.618;2022-12-07T06:51:23;2.10;94.60
27368;DHT22;14839;48.106;11.618;2022-12-07T06:53:49;2.10;94.60
27368;DHT22;14839;48.106;11.618;2022-12-07T06:56:15;2.10;94.60
27368;DHT22;14839;48.106;11.618;2022-12-07T06:58:41;2.10;94.60
27368;DHT22;14839;48.106;11.618;2022-12-07T07:01:14;2.10;94.60
27368;DHT22;14839;48.106;11.618;2022-12-07T07:03:40;2.20;94.60
27368;DHT22;14839;48.106;11.618;2022-12-07T07:06:07;2.10;94.60
27368;DHT22;14839;48.106;11.618;2022-12-07T07:08:34;2.10;94.60
27368;DHT22;14839;48.106;11.618;2022-12-07T07:11:00;2.20;94.60
27368;DHT22;14839;48.106;11.618;2022-12-07T07:13:26;2.30;94.60
27368;DHT22;14839;48.106;11.618;2022-12-07T07:15:52;2.20;94.60
27368;DHT22;14839;48.106;11.618;2022-12-07T07:18:17;2.30;94.60
27368;DHT22;14839;48.106;11.618;2022-12-07T07:20:43;2.30;94.60
27368;DHT22;14839;48.106;11.618;2022-12-07T07:23:09;2.30;94.60
27368;DHT22;14839;48.106;11.618;2022-12-07T07:25:34;2.30;94.60
27368;DHT22;14839;48.106;11.618;2022-12-07T07:28:00;2.30;94.60
27368;DHT22;14839;48.106;11.618;2022-12-07T07:30:26;2.30;94.60
27368;DHT22;14839;48.106;11.618;2022-12-07T07:32:59;2.40;94.60
27368;DHT22;14839;48.106;11.618;2022-12-07T07:35:31;2.40;94.60
27368;DHT22;14839;48.106;11.618;2022-12-07T07:37:57;2.30;94.60
27368;DHT22;14839;48.106;11.618;2022-12-07T07:40:22;2.40;94.60
27368;DHT22;14839;48.106;11.618;2022-12-07T07:42:50;2.40;94.60
27368;DHT22;14839;48.106;11.618;2022-12-07T07:45:16;2.40;94.60
27368;DHT22;14839;48.106;11.618;2022-12-07T07:47:42;2.40;94.60
27368;DHT22;14839;48.106;11.618;2022-12-07T07:50:08;2.40;94.60
27368;DHT22;14839;48.106;11.618;2022-12-07T07:52:34;2.40;94.60
27368;DHT22;14839;48.106;11.618;2022-12-07T07:54:59;2.50;94.60
27368;DHT22;14839;48.106;11.618;2022-12-07T07:57:25;2.40;94.60
27368;DHT22;14839;48.106;11.618;2022-12-07T07:59:50;2.40;94.60
27368;DHT22;14839;48.106;11.618;2022-12-07T08:02:18;2.40;94.60
27368;DHT22;14839;48.106;11.618;2022-12-07T08:04:44;2.40;94.60
27368;DHT22;14839;48.106;11.618;2022-12-07T08:07:11;2.40;94.60
27368;DHT22;14839;48.106;11.618;2022-12-07T08:09:37;2.40;94.60
27368;DHT22;14839;48.106;11.618;2022-12-07T08:12:03;2.40;94.60
27368;DHT22;14839;48.106;11.618;2022-12-07T08:14:28;2.40;94.60
27368;DHT22;14839;48.106;11.618;2022-12-07T08:16:54;2.50;94.60
27368;DHT22;14839;48.106;11.618;2022-12-07T08:19:20;2.50;94.60
27368;DHT22;14839;48.106;11.618;2022-12-07T08:21:46;2.40;94.60
27368;DHT22;14839;48.106;11.618;2022-12-07T08:24:12;2.40;94.60
27368;DHT22;14839;48.106;11.618;2022-12-07T08:26:37;2.40;94.60
27368;DHT22;14839;48.106;11.618;2022-12-07T08:29:03;2.50;94.60
27368;DHT22;14839;48.106;11.618;2022-12-07T08:31:28;2.50;94.60
27368;DHT22;14839;48.106;11.618;2022-12-07T08:33:54;2.60;94.60
27368;DHT22;14839;48.106;11.618;2022-12-07T08:36:20;2.60;94.60
27368;DHT22;14839;48.106;11.618;2022-12-07T08:38:48;2.60;94.60
27368;DHT22;14839;48.106;11.618;2022-12-07T08:41:13;2.70;94.60
27368;DHT22;14839;48.106;11.618;2022-12-07T08:43:39;2.80;94.60
27368;DHT22;14839;48.106;11.618;2022-12-07T08:48:36;2.90;94.60
27368;DHT22;14839;48.106;11.618;2022-12-07T08:51:03;2.90;94.60
27368;DHT22;14839;48.106;11.618;2022-12-07T08:53:29;2.90;94.60
27368;DHT22;14839;48.106;11.618;2022-12-07T08:55:56;3.00;94.60
27368;DHT22;14839;48.106;11.618;2022-12-07T08:58:22;2.90;94.60
27368;DHT22;14839;48.106;11.618;2022-12-07T09:00:48;3.20;94.60
27368;DHT22;14839;48.106;11.618;2022-12-07T09:03:13;3.10;94.60
27368;DHT22;14839;48.106;11.618;2022-12-07T09:05:39;3.10;94.60
27368;DHT22;14839;48.106;11.618;2022-12-07T09:08:05;3.10;94.60
27368;DHT22;14839;48.106;11.618;2022-12-07T09:10:31;3.30;94.60
27368;DHT22;14839;48.106;11.618;2022-12-07T09:12:57;3.30;94.60
27368;DHT22;14839;48.106;11.618;2022-12-07T09:15:29;3.40;94.60
27368;DHT22;14839;48.106;11.618;2022-12-07T09:17:55;3.50;94.60
27368;DHT22;14839;48.106;11.618;2022-12-07T09:20:21;3.40;94.60
27368;DHT22;14839;48.106;11.618;2022-12-07T09:22:47;3.60;94.60
27368;DHT22;14839;48.106;11.618;2022-12-07T09:25:13;3.60;94.60
27368;DHT22;14839;48.106;11.618;2022-12-07T09:27:39;3.50;94.60
27368;DHT22;14839;48.106;11.618;2022-12-07T09:30:05;3.50;94.60
27368;DHT22;14839;48.106;11.618;2022-12-07T09:32:31;3.50;94.60
27368;DHT22;14839;48.106;11.618;2022-12-07T09:34:57;3.70;94.60
27368;DHT22;14839;48.106;11.618;2022-12-07T09:37:22;3.80;94.60
27368;DHT22;14839;48.106;11.618;2022-12-07T09:39:48;3.70;94.60
27368;DHT22;14839;48.106;11.618;2022-12-07T09:42:34;3.70;94.60
27368;DHT22;14839;48.106;11.618;2022-12-07T09:45:01;3.60;94.60
27368;DHT22;14839;48.106;11.618;2022-12-07T09:47:28;3.80;94.60
27368;DHT22;14839;48.106;11.618;2022-12-07T09:50:32;3.90;94.60
27368;DHT22;14839;48.106;11.618;2022-12-07T09:52:52;4.10;94.60
27368;DHT22;14839;48.106;11.618;2022-12-07T09:55:25;4.20;94.60
27368;DHT22;14839;48.106;11.618;2022-12-07T09:57:52;4.30;94.60
27368;DHT22;14839;48.106;11.618;2022-12-07T10:00:20;4.40;94.60
27368;DHT22;14839;48.106;11.618;2022-12-07T10:05:39;4.50;94.60
27368;DHT22;14839;48.106;11.618;2022-12-07T10:08:08;4.50;94.60
27368;DHT22;14839;48.106;11.618;2022-12-07T10:10:36;4.60;94.60
27368;DHT22;14839;48.106;11.618;2022-12-07T10:13:06;4.60;94.60
27368;DHT22;14839;48.106;11.618;2022-12-07T10:15:55;4.80;94.60
27368;DHT22;14839;48.106;11.618;2022-12-07T10:18:33;4.90;94.60
27368;DHT22;14839;48.106;11.618;2022-12-07T10:21:22;5.00;94.60
27368;DHT22;14839;48.106;11.618;2022-12-07T10:24:01;5.10;94.60
27368;DHT22;14839;48.106;11.618;2022-12-07T10:26:34;5.20;94.60
27368;DHT22;14839;48.106;11.618;2022-12-07T10:31:41;5.00;94.60
27368;DHT22;14839;48.106;11.618;2022-12-07T10:34:24;5.00;94.60
27368;DHT22;14839;48.106;11.618;2022-12-07T10:36:50;5.10;94.60
27368;DHT22;14839;48.106;11.618;2022-12-07T10:39:23;5.20;94.60
27368;DHT22;14839;48.106;11.618;2022-12-07T10:42:00;5.40;94.60
27368;DHT22;14839;48.106;11.618;2022-12-07T10:44:31;5.40;94.60
27368;DHT22;14839;48.106;11.618;2022-12-07T10:56:06;5.40;94.60
27368;DHT22;14839;48.106;11.618;2022-12-07T10:58:48;5.30;94.60
27368;DHT22;14839;48.106;11.618;2022-12-07T11:15:04;5.10;94.30
27368;DHT22;14839;48.106;11.618;2022-12-07T11:23:24;5.40;94.40
27368;DHT22;14839;48.106;11.618;2022-12-07T11:29:01;5.60;94.10
27368;DHT22;14839;48.106;11.618;2022-12-07T11:31:57;5.80;92.90
27368;DHT22;14839;48.106;11.618;2022-12-07T11:34:43;5.70;93.30
27368;DHT22;14839;48.106;11.618;2022-12-07T11:37:16;5.70;92.80
27368;DHT22;14839;48.106;11.618;2022-12-07T11:39:51;5.60;91.10
27368;DHT22;14839;48.106;11.618;2022-12-07T11:42:25;5.70;91.30
27368;DHT22;14839;48.106;11.618;2022-12-07T11:44:59;5.80;91.10
27368;DHT22;14839;48.106;11.618;2022-12-07T11:47:30;5.90;90.90
27368;DHT22;14839;48.106;11.618;2022-12-07T11:50:36;5.80;91.40
27368;DHT22;14839;48.106;11.618;2022-12-07T11:56:13;5.90;93.40
27368;DHT22;14839;48.106;11.618;2022-12-07T12:03:56;5.70;94.50
27368;DHT22;14839;48.106;11.618;2022-12-07T12:06:23;5.50;94.60
27368;DHT22;14839;48.106;11.618;2022-12-07T12:09:00;5.40;93.40
27368;DHT22;14839;48.106;11.618;2022-12-07T12:11:49;5.40;91.90
27368;DHT22;14839;48.106;11.618;2022-12-07T12:20:29;5.00;91.50
27368;DHT22;14839;48.106;11.618;2022-12-07T12:23:01;5.20;92.80
27368;DHT22;14839;48.106;11.618;2022-12-07T12:25:39;5.40;93.10
27368;DHT22;14839;48.106;11.618;2022-12-07T12:28:05;5.50;92.80
27368;DHT22;14839;48.106;11.618;2022-12-07T12:30:40;5.60;92.20
27368;DHT22;14839;48.106;11.618;2022-12-07T12:33:19;5.60;92.60
27368;DHT22;14839;48.106;11.618;2022-12-07T12:35:45;5.50;92.60
27368;DHT22;14839;48.106;11.618;2022-12-07T12:38:28;5.50;93.20
27368;DHT22;14839;48.106;11.618;2022-12-07T12:40:55;5.40;92.80
27368;DHT22;14839;48.106;11.618;2022-12-07T12:43:50;5.40;92.60
27368;DHT22;14839;48.106;11.618;2022-12-07T12:57:19;5.40;93.00
27368;DHT22;14839;48.106;11.618;2022-12-07T13:02:36;5.40;93.90
27368;DHT22;14839;48.106;11.618;2022-12-07T13:13:04;5.20;94.00
27368;DHT22;14839;48.106;11.618;2022-12-07T13:15:40;5.10;94.00
27368;DHT22;14839;48.106;11.618;2022-12-07T13:23:19;4.90;94.20
27368;DHT22;14839;48.106;11.618;2022-12-07T13:25:55;4.90;94.20
27368;DHT22;14839;48.106;11.618;2022-12-07T13:28:22;4.80;94.10
27368;DHT22;14839;48.106;11.618;2022-12-07T13:33:17;4.80;93.50
27368;DHT22;14839;48.106;11.618;2022-12-07T13:35:44;4.80;93.30
27368;DHT22;14839;48.106;11.618;2022-12-07T13:38:32;4.80;93.30
27368;DHT22;14839;48.106;11.618;2022-12-07T13:43:30;4.70;94.10
27368;DHT22;14839;48.106;11.618;2022-12-07T13:45:59;4.60;94.20
27368;DHT22;14839;48.106;11.618;2022-12-07T13:48:45;4.60;94.60
27368;DHT22;14839;48.106;11.618;2022-12-07T13:51:26;4.70;94.60
27368;DHT22;14839;48.106;11.618;2022-12-07T13:53:55;4.70;94.60
27368;DHT22;14839;48.106;11.618;2022-12-07T13:56:22;4.80;94.60
27368;DHT22;14839;48.106;11.618;2022-12-07T13:58:49;4.90;94.50
27368;DHT22;14839;48.106;11.618;2022-12-07T14:01:15;4.90;93.90
27368;DHT22;14839;48.106;11.618;2022-12-07T14:03:41;5.00;94.10
27368;DHT22;14839;48.106;11.618;2022-12-07T14:08:42;5.00;94.10
27368;DHT22;14839;48.106;11.618;2022-12-07T14:11:16;5.00;94.00
27368;DHT22;14839;48.106;11.618;2022-12-07T14:14:01;4.90;94.30
27368;DHT22;14839;48.106;11.618;2022-12-07T14:16:32;4.70;94.60
27368;DHT22;14839;48.106;11.618;2022-12-07T14:19:02;4.60;94.60
27368;DHT22;14839;48.106;11.618;2022-12-07T14:21:30;4.60;94.60
27368;DHT22;14839;48.106;11.618;2022-12-07T14:24:08;4.40;94.60
27368;DHT22;14839;48.106;11.618;2022-12-07T14:26:34;4.30;94.60
27368;DHT22;14839;48.106;11.618;2022-12-07T14:31:52;4.20;94.60
27368;DHT22;14839;48.106;11.618;2022-12-07T14:34:20;4.30;94.60
27368;DHT22;14839;48.106;11.618;2022-12-07T14:36:46;4.30;94.60
27368;DHT22;14839;48.106;11.618;2022-12-07T14:39:11;4.30;94.60
27368;DHT22;14839;48.106;11.618;2022-12-07T14:41:37;4.30;94.60
27368;DHT22;14839;48.106;11.618;2022-12-07T14:44:22;4.30;94.60
27368;DHT22;14839;48.106;11.618;2022-12-07T14:46:49;4.30;94.60
27368;DHT22;14839;48.106;11.618;2022-12-07T14:49:16;4.30;94.60
27368;DHT22;14839;48.106;11.618;2022-12-07T14:51:43;4.20;94.60
27368;DHT22;14839;48.106;11.618;2022-12-07T14:54:15;4.00;94.60
27368;DHT22;14839;48.106;11.618;2022-12-07T14:56:42;3.80;94.60
27368;DHT22;14839;48.106;11.618;2022-12-07T14:59:09;3.60;94.60
27368;DHT22;14839;48.106;11.618;2022-12-07T15:01:35;3.40;94.60
27368;DHT22;14839;48.106;11.618;2022-12-07T15:04:01;3.20;94.60
27368;DHT22;14839;48.106;11.618;2022-12-07T15:06:26;3.10;94.60
27368;DHT22;14839;48.106;11.618;2022-12-07T15:08:52;3.00;94.60
27368;DHT22;14839;48.106;11.618;2022-12-07T15:11:18;2.90;94.60
27368;DHT22;14839;48.106;11.618;2022-12-07T15:13:44;2.80;94.60
27368;DHT22;14839;48.106;11.618;2022-12-07T15:16:30;2.70;94.60
27368;DHT22;14839;48.106;11.618;2022-12-07T15:18:56;2.50;94.60
27368;DHT22;14839;48.106;11.618;2022-12-07T15:21:21;2.40;94.60
27368;DHT22;14839;48.106;11.618;2022-12-07T15:23:47;2.30;94.60
27368;DHT22;14839;48.106;11.618;2022-12-07T15:26:13;2.20;94.60
27368;DHT22;14839;48.106;11.618;2022-12-07T15:28:39;2.10;94.60
27368;DHT22;14839;48.106;11.618;2022-12-07T15:31:11;2.00;94.60
27368;DHT22;14839;48.106;11.618;2022-12-07T15:33:37;2.00;94.60
27368;DHT22;14839;48.106;11.618;2022-12-07T15:36:03;1.80;94.60
27368;DHT22;14839;48.106;11.618;2022-12-07T15:38:28;1.80;94.60
27368;DHT22;14839;48.106;11.618;2022-12-07T15:40:55;1.70;94.60
27368;DHT22;14839;48.106;11.618;2022-12-07T15:43:21;1.60;94.60
27368;DHT22;14839;48.106;11.618;2022-12-07T15:46:05;1.60;94.60
27368;DHT22;14839;48.106;11.618;2022-12-07T15:48:31;1.60;94.60
27368;DHT22;14839;48.106;11.618;2022-12-07T15:51:04;1.60;94.60
27368;DHT22;14839;48.106;11.618;2022-12-07T15:53:30;1.60;94.60
27368;DHT22;14839;48.106;11.618;2022-12-07T15:55:55;1.60;94.60
27368;DHT22;14839;48.106;11.618;2022-12-07T15:58:21;1.60;94.60
27368;DHT22;14839;48.106;11.618;2022-12-07T16:00:47;1.60;94.60
27368;DHT22;14839;48.106;11.618;2022-12-07T16:03:13;1.60;94.60
27368;DHT22;14839;48.106;11.618;2022-12-07T16:05:39;1.60;94.60
27368;DHT22;14839;48.106;11.618;2022-12-07T16:08:05;1.50;94.60
27368;DHT22;14839;48.106;11.618;2022-12-07T16:10:31;1.40;94.60
27368;DHT22;14839;48.106;11.618;2022-12-07T16:12:56;1.40;94.60
27368;DHT22;14839;48.106;11.618;2022-12-07T16:15:22;1.30;94.60
27368;DHT22;14839;48.106;11.618;2022-12-07T16:17:50;1.30;94.60
27368;DHT22;14839;48.106;11.618;2022-12-07T16:20:16;1.20;94.60
27368;DHT22;14839;48.106;11.618;2022-12-07T16:22:41;1.20;94.60
27368;DHT22;14839;48.106;11.618;2022-12-07T16:25:07;1.10;94.60
27368;DHT22;14839;48.106;11.618;2022-12-07T16:27:34;1.10;94.60
27368;DHT22;14839;48.106;11.618;2022-12-07T16:29:59;1.00;94.60
27368;DHT22;14839;48.106;11.618;2022-12-07T16:32:25;0.90;94.60
27368;DHT22;14839;48.106;11.618;2022-12-07T16:34:51;0.90;94.60
27368;DHT22;14839;48.106;11.618;2022-12-07T16:37:16;0.80;94.60
27368;DHT22;14839;48.106;11.618;2022-12-07T16:39:42;0.80;94.60
27368;DHT22;14839;48.106;11.618;2022-12-07T16:42:08;0.80;94.60
27368;DHT22;14839;48.106;11.618;2022-12-07T16:44:33;0.80;94.60
27368;DHT22;14839;48.106;11.618;2022-12-07T16:46:59;0.80;94.60
27368;DHT22;14839;48.106;11.618;2022-12-07T16:49:26;0.80;94.60
27368;DHT22;14839;48.106;11.618;2022-12-07T16:51:52;0.80;94.60
27368;DHT22;14839;48.106;11.618;2022-12-07T16:54:17;0.80;94.60
27368;DHT22;14839;48.106;11.618;2022-12-07T16:56:43;0.80;94.60
27368;DHT22;14839;48.106;11.618;2022-12-07T16:59:08;0.80;94.60
27368;DHT22;14839;48.106;11.618;2022-12-07T17:01:34;0.80;94.60
27368;DHT22;14839;48.106;11.618;2022-12-07T17:04:01;0.80;94.60
27368;DHT22;14839;48.106;11.618;2022-12-07T17:06:28;0.90;94.60
27368;DHT22;14839;48.106;11.618;2022-12-07T17:08:56;0.90;94.60
27368;DHT22;14839;48.106;11.618;2022-12-07T17:11:28;1.00;94.60
27368;DHT22;14839;48.106;11.618;2022-12-07T17:13:54;1.00;94.60
27368;DHT22;14839;48.106;11.618;2022-12-07T17:16:38;1.10;94.60
27368;DHT22;14839;48.106;11.618;2022-12-07T17:19:05;1.10;94.60
27368;DHT22;14839;48.106;11.618;2022-12-07T17:21:31;1.10;94.60
27368;DHT22;14839;48.106;11.618;2022-12-07T17:24:01;1.10;94.60
27368;DHT22;14839;48.106;11.618;2022-12-07T17:26:28;1.10;94.60
27368;DHT22;14839;48.106;11.618;2022-12-07T17:28:55;1.10;94.60
27368;DHT22;14839;48.106;11.618;2022-12-07T17:31:22;1.00;94.60
27368;DHT22;14839;48.106;11.618;2022-12-07T17:33:48;1.00;94.60
27368;DHT22;14839;48.106;11.618;2022-12-07T17:36:18;0.90;94.60
27368;DHT22;14839;48.106;11.618;2022-12-07T17:38:44;0.90;94.60
27368;DHT22;14839;48.106;11.618;2022-12-07T17:41:15;1.00;94.60
27368;DHT22;14839;48.106;11.618;2022-12-07T17:44:00;0.90;94.60
27368;DHT22;14839;48.106;11.618;2022-12-07T17:46:26;0.90;94.60
27368;DHT22;14839;48.106;11.618;2022-12-07T17:48:56;0.90;94.60
27368;DHT22;14839;48.106;11.618;2022-12-07T17:51:22;0.90;94.60
27368;DHT22;14839;48.106;11.618;2022-12-07T17:54:06;0.90;94.60
27368;DHT22;14839;48.106;11.618;2022-12-07T17:56:32;0.90;94.60
27368;DHT22;14839;48.106;11.618;2022-12-07T17:58:58;0.80;94.60
27368;DHT22;14839;48.106;11.618;2022-12-07T18:01:23;0.80;94.60
27368;DHT22;14839;48.106;11.618;2022-12-07T18:03:49;0.80;94.60
27368;DHT22;14839;48.106;11.618;2022-12-07T18:06:14;0.80;94.60
27368;DHT22;14839;48.106;11.618;2022-12-07T18:08:40;0.80;94.60
27368;DHT22;14839;48.106;11.618;2022-12-07T18:11:06;0.80;94.60
27368;DHT22;14839;48.106;11.618;2022-12-07T18:13:33;0.90;94.60
27368;DHT22;14839;48.106;11.618;2022-12-07T18:16:07;0.90;94.60
27368;DHT22;14839;48.106;11.618;2022-12-07T18:18:34;0.90;94.60
27368;DHT22;14839;48.106;11.618;2022-12-07T18:21:04;0.90;94.60
27368;DHT22;14839;48.106;11.618;2022-12-07T18:23:32;0.90;94.60
27368;DHT22;14839;48.106;11.618;2022-12-07T18:25:58;0.90;94.60
27368;DHT22;14839;48.106;11.618;2022-12-07T18:28:24;0.90;94.60
27368;DHT22;14839;48.106;11.618;2022-12-07T18:30:49;1.00;94.60
27368;DHT22;14839;48.106;11.618;2022-12-07T18:33:19;1.00;94.60
27368;DHT22;14839;48.106;11.618;2022-12-07T18:35:46;1.10;94.60
27368;DHT22;14839;48.106;11.618;2022-12-07T18:38:18;1.10;94.60
27368;DHT22;14839;48.106;11.618;2022-12-07T18:40:44;1.10;94.60
27368;DHT22;14839;48.106;11.618;2022-12-07T18:43:11;1.20;94.60
27368;DHT22;14839;48.106;11.618;2022-12-07T18:45:41;1.30;94.60
27368;DHT22;14839;48.106;11.618;2022-12-07T18:48:08;1.30;94.60
27368;DHT22;14839;48.106;11.618;2022-12-07T18:50:35;1.30;94.60
27368;DHT22;14839;48.106;11.618;2022-12-07T18:53:01;1.40;94.60
27368;DHT22;14839;48.106;11.618;2022-12-07T18:55:28;1.40;94.60
27368;DHT22;14839;48.106;11.618;2022-12-07T18:57:55;1.40;94.60
27368;DHT22;14839;48.106;11.618;2022-12-07T19:00:22;1.50;94.60
27368;DHT22;14839;48.106;11.618;2022-12-07T19:02:49;1.50;94.60
27368;DHT22;14839;48.106;11.618;2022-12-07T19:05:15;1.50;94.60
27368;DHT22;14839;48.106;11.618;2022-12-07T19:07:41;1.50;94.60
27368;DHT22;14839;48.106;11.618;2022-12-07T19:10:07;1.50;94.60
27368;DHT22;14839;48.106;11.618;2022-12-07T19:12:33;1.50;94.60
27368;DHT22;14839;48.106;11.618;2022-12-07T19:14:59;1.60;94.60
27368;DHT22;14839;48.106;11.618;2022-12-07T19:17:25;1.60;94.60
27368;DHT22;14839;48.106;11.618;2022-12-07T19:19:50;1.50;94.60
27368;DHT22;14839;48.106;11.618;2022-12-07T19:22:18;1.60;94.60
27368;DHT22;14839;48.106;11.618;2022-12-07T19:24:47;1.70;94.60
27368;DHT22;14839;48.106;11.618;2022-12-07T19:27:13;1.70;94.60
27368;DHT22;14839;48.106;11.618;2022-12-07T19:29:40;1.60;94.60
27368;DHT22;14839;48.106;11.618;2022-12-07T19:32:06;1.60;94.60
27368;DHT22;14839;48.106;11.618;2022-12-07T19:34:34;1.60;94.60
27368;DHT22;14839;48.106;11.618;2022-12-07T19:37:00;1.70;94.60
27368;DHT22;14839;48.106;11.618;2022-12-07T19:39:26;1.70;94.60
27368;DHT22;14839;48.106;11.618;2022-12-07T19:41:51;1.70;94.60
27368;DHT22;14839;48.106;11.618;2022-12-07T19:44:23;1.80;94.60
27368;DHT22;14839;48.106;11.618;2022-12-07T19:46:51;1.80;94.60
27368;DHT22;14839;48.106;11.618;2022-12-07T19:49:19;1.80;94.60
27368;DHT22;14839;48.106;11.618;2022-12-07T19:51:47;1.80;94.60
27368;DHT22;14839;48.106;11.618;2022-12-07T19:54:15;1.80;94.60
27368;DHT22;14839;48.106;11.618;2022-12-07T19:56:41;1.70;94.60
27368;DHT22;14839;48.106;11.618;2022-12-07T19:59:08;1.60;94.60
27368;DHT22;14839;48.106;11.618;2022-12-07T20:01:34;1.60;94.60
27368;DHT22;14839;48.106;11.618;2022-12-07T20:04:04;1.50;94.60
27368;DHT22;14839;48.106;11.618;2022-12-07T20:06:29;1.50;94.60
27368;DHT22;14839;48.106;11.618;2022-12-07T20:08:55;1.50;94.60
27368;DHT22;14839;48.106;11.618;2022-12-07T20:11:20;1.50;94.60
27368;DHT22;14839;48.106;11.618;2022-12-07T20:14:06;1.40;94.60
27368;DHT22;14839;48.106;11.618;2022-12-07T20:16:32;1.60;94.60
27368;DHT22;14839;48.106;11.618;2022-12-07T20:18:58;1.60;94.60
27368;DHT22;14839;48.106;11.618;2022-12-07T20:21:24;1.60;94.60
27368;DHT22;14839;48.106;11.618;2022-12-07T20:23:50;1.60;94.60
27368;DHT22;14839;48.106;11.618;2022-12-07T20:26:16;1.70;94.60
27368;DHT22;14839;48.106;11.618;2022-12-07T20:28:42;1.70;94.60
27368;DHT22;14839;48.106;11.618;2022-12-07T20:31:12;1.60;94.60
27368;DHT22;14839;48.106;11.618;2022-12-07T20:33:37;1.60;94.60
27368;DHT22;14839;48.106;11.618;2022-12-07T20:36:04;1.60;94.60
27368;DHT22;14839;48.106;11.618;2022-12-07T20:38:30;1.50;94.60
27368;DHT22;14839;48.106;11.618;2022-12-07T20:41:05;1.40;94.60
27368;DHT22;14839;48.106;11.618;2022-12-07T20:43:32;1.40;94.60
27368;DHT22;14839;48.106;11.618;2022-12-07T20:45:58;1.40;94.60
27368;DHT22;14839;48.106;11.618;2022-12-07T20:48:25;1.50;94.60
27368;DHT22;14839;48.106;11.618;2022-12-07T20:50:51;1.50;94.60
27368;DHT22;14839;48.106;11.618;2022-12-07T20:53:16;1.50;94.60
27368;DHT22;14839;48.106;11.618;2022-12-07T20:55:42;1.50;94.60
27368;DHT22;14839;48.106;11.618;2022-12-07T20:58:08;1.40;94.60
27368;DHT22;14839;48.106;11.618;2022-12-07T21:00:34;1.40;94.60
27368;DHT22;14839;48.106;11.618;2022-12-07T21:03:01;1.40;94.60
27368;DHT22;14839;48.106;11.618;2022-12-07T21:05:27;1.30;94.60
27368;DHT22;14839;48.106;11.618;2022-12-07T21:07:52;1.30;94.60
27368;DHT22;14839;48.106;11.618;2022-12-07T21:10:18;1.30;94.60
27368;DHT22;14839;48.106;11.618;2022-12-07T21:12:44;1.30;94.60
27368;DHT22;14839;48.106;11.618;2022-12-07T21:15:09;1.30;94.60
27368;DHT22;14839;48.106;11.618;2022-12-07T21:17:35;1.30;94.60
27368;DHT22;14839;48.106;11.618;2022-12-07T21:20:00;1.30;94.60
27368;DHT22;14839;48.106;11.618;2022-12-07T21:22:26;1.30;94.60
27368;DHT22;14839;48.106;11.618;2022-12-07T21:24:52;1.30;94.60
27368;DHT22;14839;48.106;11.618;2022-12-07T21:27:17;1.30;94.60
27368;DHT22;14839;48.106;11.618;2022-12-07T21:29:43;1.30;94.60
27368;DHT22;14839;48.106;11.618;2022-12-07T21:32:09;1.40;94.60
27368;DHT22;14839;48.106;11.618;2022-12-07T21:34:35;1.50;94.60
27368;DHT22;14839;48.106;11.618;2022-12-07T21:37:01;1.40;94.60
27368;DHT22;14839;48.106;11.618;2022-12-07T21:39:26;1.40;94.60
27368;DHT22;14839;48.106;11.618;2022-12-07T21:41:52;1.40;94.60
27368;DHT22;14839;48.106;11.618;2022-12-07T21:44:18;1.40;94.60
27368;DHT22;14839;48.106;11.618;2022-12-07T21:46:43;1.40;94.60
27368;DHT22;14839;48.106;11.618;2022-12-07T21:49:11;1.40;94.60
27368;DHT22;14839;48.106;11.618;2022-12-07T21:51:38;1.40;94.60
27368;DHT22;14839;48.106;11.618;2022-12-07T21:54:05;1.40;94.60
27368;DHT22;14839;48.106;11.618;2022-12-07T21:56:35;1.30;94.60
27368;DHT22;14839;48.106;11.618;2022-12-07T21:59:09;1.30;94.60
27368;DHT22;14839;48.106;11.618;2022-12-07T22:01:36;1.30;94.60
27368;DHT22;14839;48.106;11.618;2022-12-07T22:04:07;1.30;94.60
27368;DHT22;14839;48.106;11.618;2022-12-07T22:06:35;1.30;94.60
27368;DHT22;14839;48.106;11.618;2022-12-07T22:09:02;1.40;94.60